Time,TemperatureF,DewpointF,PressureIn,WindDirection,WindDirectionDegrees,WindSpeedMPH,WindSpeedGustMPH,Humidity,HourlyPrecipIn,Conditions,Clouds,dailyrainin,SolarRadiationWatts/m^2,SoftwareType,DateUTC
2013-05-13 00:11:00,58.0,47.0,-100.00,NNE,24,8.0,12.0,68,0.00,,,0.00,0.000000,,2013-05-13 07:11:00,
2013-05-13 00:22:00,58.0,47.0,-100.00,NNE,24,8.0,12.0,68,0.00,,,0.00,0.000000,,2013-05-13 07:22:00,
2013-05-13 00:31:00,58.0,47.0,-100.00,NNE,24,8.0,12.0,68,0.00,,,0.00,0.000000,,2013-05-13 07:31:00,
2013-05-13 00:41:00,58.0,47.0,-100.00,NNE,24,8.0,12.0,68,0.00,,,0.00,0.000000,,2013-05-13 07:41:00,
2013-05-13 00:51:00,58.0,39.0,-100.00,NW,310,9.0,14.0,49,0.00,,,0.00,0.000000,,2013-05-13 07:51:00,
2013-05-13 01:11:00,58.0,39.0,-100.00,NW,310,9.0,14.0,49,0.00,,,0.00,0.000000,,2013-05-13 08:11:00,
2013-05-13 01:21:00,58.0,39.0,-100.00,NW,310,9.0,14.0,49,0.00,,,0.00,0.000000,,2013-05-13 08:21:00,
2013-05-13 01:31:00,58.0,39.0,-100.00,NW,310,9.0,14.0,49,0.00,,,0.00,0.000000,,2013-05-13 08:31:00,
2013-05-13 01:41:00,58.0,39.0,-100.00,NW,310,9.0,14.0,49,0.00,,,0.00,0.000000,,2013-05-13 08:41:00,
2013-05-13 02:11:00,57.0,26.0,-100.00,NNW,329,8.0,14.0,30,0.00,,,0.00,0.000000,,2013-05-13 09:11:00,
2013-05-13 02:21:00,57.0,26.0,-100.00,NNW,329,8.0,14.0,30,0.00,,,0.00,0.000000,,2013-05-13 09:21:00,
2013-05-13 02:33:00,57.0,26.0,-100.00,NNW,329,8.0,14.0,30,0.00,,,0.00,0.000000,,2013-05-13 09:33:00,
2013-05-13 03:22:00,57.0,21.0,-100.00,WSW,253,8.0,12.0,24,0.00,,,0.00,0.000000,,2013-05-13 10:22:00,
2013-05-13 04:21:00,57.0,21.0,-100.00,NNE,16,7.0,12.0,24,0.00,,,0.00,0.000000,,2013-05-13 11:21:00,
2013-05-13 04:32:00,57.0,21.0,-100.00,NNE,16,7.0,12.0,24,0.00,,,0.00,0.000000,,2013-05-13 11:32:00,
2013-05-13 04:51:00,58.0,24.0,-100.00,West,269,6.0,10.0,27,0.00,,,0.00,0.000000,,2013-05-13 11:51:00,
2013-05-13 05:11:00,58.0,24.0,-100.00,West,269,6.0,10.0,27,0.00,,,0.00,0.000000,,2013-05-13 12:11:00,
2013-05-13 05:21:00,58.0,24.0,-100.00,West,269,6.0,10.0,27,0.00,,,0.00,0.000000,,2013-05-13 12:21:00,
2013-05-13 05:32:00,58.0,24.0,-100.00,West,269,6.0,10.0,27,0.00,,,0.00,0.000000,,2013-05-13 12:32:00,
2013-05-13 05:42:00,58.0,24.0,-100.00,West,269,6.0,10.0,27,0.00,,,0.00,0.000000,,2013-05-13 12:42:00,
2013-05-13 05:51:00,58.0,25.0,-100.00,East,81,6.0,10.0,28,0.00,,,0.00,0.000000,,2013-05-13 12:51:00,
2013-05-13 06:11:00,58.0,25.0,-100.00,East,81,6.0,10.0,28,0.00,,,0.00,0.000000,,2013-05-13 13:11:00,
2013-05-13 06:21:00,58.0,25.0,-100.00,East,81,6.0,10.0,28,0.00,,,0.00,0.000000,,2013-05-13 13:21:00,
2013-05-13 06:31:00,58.0,25.0,-100.00,East,81,6.0,10.0,28,0.00,,,0.00,0.000000,,2013-05-13 13:31:00,
2013-05-13 06:41:00,58.0,25.0,-100.00,East,81,6.0,10.0,28,0.00,,,0.00,0.000000,,2013-05-13 13:41:00,
2013-05-13 06:51:00,60.0,33.0,-100.00,ESE,117,5.0,10.0,36,0.00,,,0.00,67.000000,,2013-05-13 13:51:00,
2013-05-13 07:11:00,60.0,33.0,-100.00,ESE,117,5.0,10.0,36,0.00,,,0.00,67.000000,,2013-05-13 14:11:00,
2013-05-13 07:22:00,60.0,33.0,-100.00,ESE,117,5.0,10.0,36,0.00,,,0.00,67.000000,,2013-05-13 14:22:00,
2013-05-13 07:31:00,60.0,33.0,-100.00,ESE,117,5.0,10.0,36,0.00,,,0.00,67.000000,,2013-05-13 14:31:00,
2013-05-13 07:41:00,60.0,33.0,-100.00,ESE,117,5.0,10.0,36,0.00,,,0.00,67.000000,,2013-05-13 14:41:00,
2013-05-13 07:51:00,64.0,30.0,-100.00,WSW,254,0.0,8.0,28,0.00,,,0.00,317.000000,,2013-05-13 14:51:00,
2013-05-13 08:42:00,64.0,30.0,-100.00,WSW,254,0.0,8.0,28,0.00,,,0.00,317.000000,,2013-05-13 15:42:00,
2013-05-13 08:51:00,69.0,27.0,-100.00,SSW,208,1.0,5.0,21,-99.99,,,0.00,597.000000,,2013-05-13 15:51:00,
2013-05-13 09:11:00,69.0,27.0,-100.00,SSW,208,1.0,5.0,21,-99.99,,,0.00,597.000000,,2013-05-13 16:11:00,
2013-05-13 09:51:00,72.0,31.0,-100.00,SSW,203,0.0,6.0,22,-99.99,,,0.00,930.000000,,2013-05-13 16:51:00,
2013-05-13 10:12:00,72.0,31.0,-100.00,SSW,203,0.0,6.0,22,-99.99,,,0.00,930.000000,,2013-05-13 17:12:00,
2013-05-13 10:51:00,74.0,33.0,-100.00,SSW,204,1.0,5.0,22,0.00,,,0.00,1170.000000,,2013-05-13 17:51:00,
2013-05-13 11:12:00,74.0,33.0,-100.00,SSW,204,1.0,5.0,22,0.00,,,0.00,1170.000000,,2013-05-13 18:12:00,
2013-05-13 11:42:00,74.0,33.0,-100.00,SSW,204,1.0,5.0,22,0.00,,,0.00,1170.000000,,2013-05-13 18:42:00,
2013-05-13 11:51:00,74.0,29.0,-100.00,SSE,166,2.0,8.0,19,0.00,,,0.00,1343.000000,,2013-05-13 18:51:00,
2013-05-13 12:11:00,74.0,29.0,-100.00,SSE,166,2.0,8.0,19,0.00,,,0.00,1343.000000,,2013-05-13 19:11:00,
2013-05-13 12:43:00,74.0,29.0,-100.00,SSE,166,2.0,8.0,19,0.00,,,0.00,1343.000000,,2013-05-13 19:43:00,
2013-05-13 12:51:00,74.0,33.0,-100.00,East,96,2.0,8.0,22,0.00,,,0.00,1437.000000,,2013-05-13 19:51:00,
2013-05-13 13:44:00,74.0,33.0,-100.00,East,96,2.0,8.0,22,0.00,,,0.00,1437.000000,,2013-05-13 20:44:00,
2013-05-13 13:51:00,75.0,35.0,-100.00,WNW,292,2.0,8.0,23,0.00,,,0.00,1447.000000,,2013-05-13 20:51:00,
2013-05-13 14:43:00,75.0,35.0,-100.00,WNW,292,2.0,8.0,23,0.00,,,0.00,1447.000000,,2013-05-13 21:43:00,
2013-05-13 14:51:00,71.0,36.0,-100.00,SW,232,3.0,9.0,28,0.00,,,0.00,1367.000000,,2013-05-13 21:51:00,
2013-05-13 15:12:00,71.0,36.0,-100.00,SW,232,3.0,9.0,28,0.00,,,0.00,1367.000000,,2013-05-13 22:12:00,
2013-05-13 15:22:00,71.0,36.0,-100.00,SW,232,3.0,9.0,28,0.00,,,0.00,1367.000000,,2013-05-13 22:22:00,
2013-05-13 15:32:00,71.0,36.0,-100.00,SW,232,3.0,9.0,28,0.00,,,0.00,1367.000000,,2013-05-13 22:32:00,
2013-05-13 15:42:00,71.0,36.0,-100.00,SW,232,3.0,9.0,28,0.00,,,0.00,1367.000000,,2013-05-13 22:42:00,
2013-05-13 15:51:00,71.0,37.0,-100.00,West,261,3.0,9.0,29,0.00,,,0.00,1203.000000,,2013-05-13 22:51:00,
2013-05-13 16:12:00,71.0,37.0,-100.00,West,261,3.0,9.0,29,0.00,,,0.00,1203.000000,,2013-05-13 23:12:00,
2013-05-13 16:23:00,71.0,37.0,-100.00,West,261,3.0,9.0,29,0.00,,,0.00,1203.000000,,2013-05-13 23:23:00,
2013-05-13 16:33:00,71.0,37.0,-100.00,West,261,3.0,9.0,29,0.00,,,0.00,1203.000000,,2013-05-13 23:33:00,
2013-05-13 16:42:00,71.0,37.0,-100.00,West,261,3.0,9.0,29,0.00,,,0.00,1203.000000,,2013-05-13 23:42:00,
2013-05-13 16:51:00,69.0,37.0,-100.00,WSW,244,3.0,13.0,31,0.00,,,0.00,973.000000,,2013-05-13 23:51:00,
2013-05-13 17:12:00,69.0,37.0,-100.00,WSW,244,3.0,13.0,31,0.00,,,0.00,973.000000,,2013-05-14 00:12:00,
2013-05-13 17:22:00,69.0,37.0,-100.00,WSW,244,3.0,13.0,31,0.00,,,0.00,973.000000,,2013-05-14 00:22:00,
2013-05-13 17:31:00,69.0,37.0,-100.00,WSW,244,3.0,13.0,31,0.00,,,0.00,973.000000,,2013-05-14 00:31:00,
2013-05-13 17:41:00,69.0,37.0,-100.00,WSW,244,3.0,13.0,31,0.00,,,0.00,973.000000,,2013-05-14 00:41:00,
2013-05-13 17:51:00,68.0,35.0,-100.00,WSW,240,3.0,12.0,29,0.00,,,0.00,690.000000,,2013-05-14 00:51:00,
2013-05-13 18:11:00,68.0,35.0,-100.00,WSW,240,3.0,12.0,29,0.00,,,0.00,690.000000,,2013-05-14 01:11:00,
2013-05-13 18:21:00,68.0,35.0,-100.00,WSW,240,3.0,12.0,29,0.00,,,0.00,690.000000,,2013-05-14 01:21:00,
2013-05-13 18:31:00,68.0,35.0,-100.00,WSW,240,3.0,12.0,29,0.00,,,0.00,690.000000,,2013-05-14 01:31:00,
2013-05-13 18:43:00,68.0,35.0,-100.00,WSW,240,3.0,12.0,29,0.00,,,0.00,690.000000,,2013-05-14 01:43:00,
2013-05-13 18:51:00,62.0,33.0,-100.00,WNW,283,3.0,8.0,33,0.00,,,0.00,203.000000,,2013-05-14 01:51:00,
2013-05-13 19:11:00,62.0,33.0,-100.00,WNW,283,3.0,8.0,33,0.00,,,0.00,203.000000,,2013-05-14 02:11:00,
2013-05-13 19:22:00,62.0,33.0,-100.00,WNW,283,3.0,8.0,33,0.00,,,0.00,203.000000,,2013-05-14 02:22:00,
2013-05-13 19:31:00,62.0,33.0,-100.00,WNW,283,3.0,8.0,33,0.00,,,0.00,203.000000,,2013-05-14 02:31:00,
2013-05-13 19:42:00,62.0,33.0,-100.00,WNW,283,3.0,8.0,33,0.00,,,0.00,203.000000,,2013-05-14 02:42:00,
2013-05-13 20:11:00,59.0,33.0,-100.00,WSW,250,8.0,12.0,38,0.00,,,0.00,19.000000,,2013-05-14 03:11:00,
2013-05-13 20:21:00,59.0,33.0,-100.00,WSW,250,8.0,12.0,38,0.00,,,0.00,19.000000,,2013-05-14 03:21:00,
2013-05-13 20:33:00,59.0,33.0,-100.00,WSW,250,8.0,12.0,38,0.00,,,0.00,19.000000,,2013-05-14 03:33:00,
2013-05-13 20:42:00,59.0,33.0,-100.00,WSW,250,8.0,12.0,38,0.00,,,0.00,19.000000,,2013-05-14 03:42:00,
2013-05-13 20:51:00,60.0,31.0,-100.00,South,174,10.0,17.0,33,0.00,,,0.00,0.000000,,2013-05-14 03:51:00,
2013-05-13 21:13:00,60.0,31.0,-100.00,South,174,10.0,17.0,33,0.00,,,0.00,0.000000,,2013-05-14 04:13:00,
2013-05-13 21:22:00,60.0,31.0,-100.00,South,174,10.0,17.0,33,0.00,,,0.00,0.000000,,2013-05-14 04:22:00,
2013-05-13 21:32:00,60.0,31.0,-100.00,South,174,10.0,17.0,33,0.00,,,0.00,0.000000,,2013-05-14 04:32:00,
2013-05-13 21:43:00,60.0,31.0,-100.00,South,174,10.0,17.0,33,0.00,,,0.00,0.000000,,2013-05-14 04:43:00,
2013-05-13 21:51:00,60.0,30.0,-100.00,SSW,205,9.0,18.0,32,0.00,,,0.00,0.000000,,2013-05-14 04:51:00,
2013-05-13 22:12:00,60.0,30.0,-100.00,SSW,205,9.0,18.0,32,0.00,,,0.00,0.000000,,2013-05-14 05:12:00,
2013-05-13 22:21:00,60.0,30.0,-100.00,SSW,205,9.0,18.0,32,0.00,,,0.00,0.000000,,2013-05-14 05:21:00,
2013-05-13 22:32:00,60.0,30.0,-100.00,SSW,205,9.0,18.0,32,0.00,,,0.00,0.000000,,2013-05-14 05:32:00,
2013-05-13 22:42:00,60.0,30.0,-100.00,SSW,205,9.0,18.0,32,0.00,,,0.00,0.000000,,2013-05-14 05:42:00,
2013-05-13 22:51:00,58.0,29.0,-100.00,SSE,163,11.0,18.0,33,0.00,,,0.00,0.000000,,2013-05-14 05:51:00,
2013-05-13 23:22:00,58.0,29.0,-100.00,SSE,163,11.0,18.0,33,0.00,,,0.00,0.000000,,2013-05-14 06:22:00,
2013-05-13 23:32:00,58.0,29.0,-100.00,SSE,163,11.0,18.0,33,0.00,,,0.00,0.000000,,2013-05-14 06:32:00,
2013-05-13 23:42:00,58.0,29.0,-100.00,SSE,163,11.0,18.0,33,0.00,,,0.00,0.000000,,2013-05-14 06:42:00,
2013-05-13 23:51:00,59.0,28.0,-100.00,NNW,341,10.0,18.0,30,0.00,,,0.00,0.000000,,2013-05-14 06:51:00,